MUCU/SCU METAR and TAF weather

Enter ICAO airport designator
Station Type Date Time Source
MUCU METAR 2019/08/25 19:50 UTC NOAA

MUCU 251950Z 22008KT 9999 SCT020CB 32/23 Q1013


Station Type Date Time Source
MUCU Decoded METAR 2019/08/25 19:50 UTC NOAA

Station name not available
Aug 25, 2019 - 03:50 PM EDT / 2019.08.25 1950 UTC
Wind: from the SW (220 degrees) at 9 MPH (8 KT):0
Visibility: greater than 7 mile(s):0
Sky conditions: partly cloudy
Weather: Cumulonimbus clouds observed
Temperature: 89 F (32 C)
Heat index: 96.8 F (36.0 C):1
Dew Point: 73 F (23 C)
Relative Humidity: 59%
Pressure (altimeter): 29.91 in. Hg (1013 hPa)
ob: MUCU 251950Z 22008KT 9999 SCT020CB 32/23 Q1013
cycle: 20

Station Type Date Time Source
MUCU TAF 2019/08/25 18:03 UTC NOAA

TAF MUCU 251700Z 2518/2618 18008KT 9000 SCT020
BECMG 2600/2602 VRB03KT

Example: see airport list